Time;durP1;ratioP1;P1;durP2;ratioP2;P2;SDS_P1;SDS_P2;PMS_P1;PMS_P2;Temp;Humidity;BMP_temperature;BMP_pressure;BME280_temperature;BME280_humidity;BME280_pressure;Samples;Min_cycle;Max_cycle;Signal;HPM_P1;HPM_P2
2023/07/03 00:03:07;;;;;;;10.48;3.35;;;;;;;20.68;51.61;99374.16;7819074;32;40015;-74
2023/07/03 00:07:23;;;;;;;6.75;3.17;;;;;;;20.88;51.20;99375.94;7817820;32;41235;-74
2023/07/03 00:11:39;;;;;;;7.93;3.10;;;;;;;21.16;50.88;99383.47;7819052;32;37635;-74
2023/07/03 00:16:00;;;;;;;8.52;3.47;;;;;;;21.02;51.11;99389.41;7818941;32;37100;-74
2023/07/03 00:20:17;;;;;;;7.40;3.45;;;;;;;21.22;50.54;99393.16;7818855;32;38462;-74
2023/07/03 00:24:33;;;;;;;11.73;3.78;;;;;;;21.00;50.57;99398.06;7818683;32;40546;-74
2023/07/03 00:28:50;;;;;;;6.20;3.42;;;;;;;20.97;49.46;99398.81;7818520;32;38717;-74
2023/07/03 00:33:07;;;;;;;6.45;3.40;;;;;;;20.72;50.38;99402.78;7818640;32;37023;-74
2023/07/03 00:37:23;;;;;;;7.03;3.42;;;;;;;20.74;50.70;99404.03;7817181;32;39365;-74
2023/07/03 00:41:40;;;;;;;9.32;3.75;;;;;;;20.83;50.62;99387.28;7818321;32;39598;-74
2023/07/03 00:45:56;;;;;;;7.12;3.45;;;;;;;20.64;50.97;99396.22;7818067;32;38180;-74
2023/07/03 00:50:13;;;;;;;10.55;3.55;;;;;;;20.78;50.63;99387.53;7818095;32;37203;-74
2023/07/03 00:54:30;;;;;;;10.90;3.60;;;;;;;20.67;51.31;99392.75;7816795;32;40563;-74
2023/07/03 00:58:46;;;;;;;8.68;3.62;;;;;;;20.78;51.80;99398.59;7816463;32;40924;-74
2023/07/03 01:03:16;;;;;;;8.13;3.58;;;;;;;20.67;52.49;99400.25;7817703;32;37870;-74
2023/07/03 01:07:34;;;;;;;8.65;4.07;;;;;;;20.47;52.82;99399.19;7816593;32;37812;-74
2023/07/03 01:11:50;;;;;;;6.90;3.65;;;;;;;20.76;52.66;99395.38;7819538;32;40132;-74
2023/07/03 01:16:08;;;;;;;8.65;3.78;;;;;;;20.61;53.74;99396.88;7819927;32;40706;-74
2023/07/03 01:20:25;;;;;;;7.72;3.85;;;;;;;20.37;55.36;99404.06;7819861;32;37905;-74
2023/07/03 01:24:54;;;;;;;9.32;3.92;;;;;;;20.40;55.82;99408.09;7819941;32;36734;-74
2023/07/03 01:29:12;;;;;;;7.68;3.97;;;;;;;20.30;55.11;99409.38;7821023;32;39433;-74
2023/07/03 01:33:33;;;;;;;9.98;3.97;;;;;;;20.24;54.91;99416.28;7819870;32;39916;-73
2023/07/03 01:37:52;;;;;;;8.25;4.00;;;;;;;20.38;54.42;99413.16;7819745;32;38748;-74
2023/07/03 01:42:10;;;;;;;10.35;4.22;;;;;;;20.20;55.41;99407.88;7821570;32;37912;-74
2023/07/03 01:46:26;;;;;;;9.73;4.28;;;;;;;20.41;55.13;99410.50;7807098;32;39174;-74
2023/07/03 01:50:45;;;;;;;7.37;3.72;;;;;;;20.32;54.39;99406.28;7820798;32;39906;-74
2023/07/03 01:55:04;;;;;;;9.70;3.85;;;;;;;20.26;53.94;99395.44;7819626;32;37029;-74
2023/07/03 01:59:29;;;;;;;7.62;3.70;;;;;;;20.36;53.32;99398.87;7820414;32;38683;-75
2023/07/03 02:03:52;;;;;;;9.27;3.83;;;;;;;20.22;53.35;99397.25;7819621;32;39410;-73
2023/07/03 02:08:10;;;;;;;7.90;3.30;;;;;;;20.13;53.65;99396.56;7819421;32;40818;-74
2023/07/03 02:12:28;;;;;;;8.15;3.90;;;;;;;20.07;53.97;99404.31;7819354;32;37592;-74
2023/07/03 02:16:47;;;;;;;8.15;3.90;;;;;;;19.83;54.38;99407.84;7820467;32;38180;-73
2023/07/03 02:21:07;;;;;;;11.38;4.30;;;;;;;19.82;54.36;99397.94;7820715;32;40650;-74
2023/07/03 02:25:23;;;;;;;9.00;3.70;;;;;;;19.75;54.50;99405.97;7820328;32;40862;-74
2023/07/03 02:29:39;;;;;;;8.75;3.95;;;;;;;19.79;54.38;99417.16;7820270;32;37652;-74
2023/07/03 02:33:56;;;;;;;8.38;4.03;;;;;;;19.86;54.08;99409.09;7820210;32;37044;-74
2023/07/03 02:38:14;;;;;;;7.60;4.03;;;;;;;19.68;54.08;99405.72;7806164;32;39464;-74
2023/07/03 02:42:31;;;;;;;7.43;4.07;;;;;;;19.29;54.79;99421.72;7820225;32;38902;-74
2023/07/03 02:46:47;;;;;;;8.88;4.40;;;;;;;19.50;54.60;99416.94;7819982;32;38739;-74
2023/07/03 02:51:03;;;;;;;8.77;4.00;;;;;;;19.57;54.73;99416.38;7820117;32;36988;-74
2023/07/03 02:55:20;;;;;;;7.47;3.70;;;;;;;19.50;55.02;99429.97;7819935;32;39346;-74
2023/07/03 02:59:36;;;;;;;9.70;4.10;;;;;;;19.59;54.66;99418.81;7819635;32;41667;-74
2023/07/03 03:03:53;;;;;;;8.13;4.37;;;;;;;19.58;53.67;99423.53;7819839;32;38672;-74
2023/07/03 03:08:11;;;;;;;7.82;3.50;;;;;;;19.47;53.83;99434.22;7819858;32;38294;-73
2023/07/03 03:12:27;;;;;;;7.75;4.07;;;;;;;19.50;53.75;99428.00;7819822;32;39376;-73
2023/07/03 03:16:44;;;;;;;9.18;4.20;;;;;;;19.38;54.25;99435.44;7819782;32;40650;-73
2023/07/03 03:21:00;;;;;;;7.37;3.72;;;;;;;19.44;53.88;99436.87;7819528;32;39584;-74
2023/07/03 03:25:17;;;;;;;7.65;4.18;;;;;;;19.41;54.03;99435.56;7819662;32;37832;-73
2023/07/03 03:29:34;;;;;;;8.93;3.90;;;;;;;19.39;54.19;99437.87;7819686;32;40183;-74
2023/07/03 03:33:51;;;;;;;14.50;4.37;;;;;;;19.61;53.74;99441.38;7819357;31;38038;-74
2023/07/03 03:38:07;;;;;;;7.90;3.80;;;;;;;19.41;54.30;99445.81;7819207;32;38041;-73
2023/07/03 03:42:23;;;;;;;7.53;4.00;;;;;;;19.46;54.38;99448.38;7819411;32;37815;-74
2023/07/03 03:46:40;;;;;;;10.57;3.80;;;;;;;19.19;55.85;99450.56;7819445;32;40050;-73
2023/07/03 03:50:56;;;;;;;7.78;4.12;;;;;;;19.39;55.50;99448.12;7819140;32;40112;-74
2023/07/03 03:55:13;;;;;;;8.95;4.10;;;;;;;19.39;55.73;99457.22;7819216;32;37971;-74
2023/07/03 03:59:29;;;;;;;10.85;4.57;;;;;;;19.32;56.15;99454.19;7819035;32;37084;-74
2023/07/03 04:03:45;;;;;;;7.28;4.10;;;;;;;19.31;56.27;99455.34;7819174;32;39868;-74
2023/07/03 04:08:02;;;;;;;8.82;4.40;;;;;;;19.33;56.34;99455.78;7819085;32;39839;-73
2023/07/03 04:12:18;;;;;;;8.13;4.25;;;;;;;19.32;56.59;99455.00;7818958;32;37921;-74
2023/07/03 04:16:35;;;;;;;10.40;4.87;;;;;;;19.35;56.55;99461.00;7818966;32;37512;-74
2023/07/03 04:20:51;;;;;;;7.43;3.62;;;;;;;19.44;56.34;99457.00;7817483;32;39490;-74
2023/07/03 04:25:09;;;;;;;9.48;3.97;;;;;;;19.52;56.08;99469.94;7818714;32;40850;-75
2023/07/03 04:29:25;;;;;;;7.87;3.90;;;;;;;19.51;56.07;99465.56;7818741;32;37999;-74
2023/07/03 04:33:45;;;;;;;10.35;4.10;;;;;;;19.52;56.14;99475.47;7818629;32;37962;-74
2023/07/03 04:38:01;;;;;;;11.68;4.60;;;;;;;19.59;55.99;99479.62;7818396;32;40180;-74
2023/07/03 04:42:17;;;;;;;10.75;4.65;;;;;;;19.58;56.20;99489.09;7818662;31;39101;-74
2023/07/03 04:46:34;;;;;;;8.02;4.05;;;;;;;19.64;55.84;99494.03;7820858;32;37638;-74
2023/07/03 04:50:51;;;;;;;8.60;4.30;;;;;;;19.88;55.17;99498.87;7821997;31;35150;-74
2023/07/03 04:55:08;;;;;;;8.63;4.50;;;;;;;19.99;54.86;99490.97;7821470;32;39341;-74
2023/07/03 04:59:24;;;;;;;9.20;3.90;;;;;;;20.02;54.93;99486.72;7821160;32;40709;-74
2023/07/03 05:03:41;;;;;;;8.32;4.20;;;;;;;20.17;54.31;99494.34;7821158;32;38680;-74
2023/07/03 05:07:57;;;;;;;9.85;4.40;;;;;;;20.37;54.12;99492.66;7821288;32;37179;-74
2023/07/03 05:12:14;;;;;;;6.10;3.78;;;;;;;20.46;53.87;99495.31;7821272;32;40093;-74
2023/07/03 05:16:30;;;;;;;8.45;4.32;;;;;;;20.54;53.40;99496.34;7821309;32;40803;-70
2023/07/03 05:20:48;;;;;;;8.00;3.75;;;;;;;20.70;53.23;99493.72;7821071;32;37893;-69
2023/07/03 05:25:06;;;;;;;8.95;4.32;;;;;;;20.89;52.83;99496.72;7821260;32;36946;-75
2023/07/03 05:29:22;;;;;;;7.35;3.33;;;;;;;21.32;55.64;99502.75;7821027;32;39403;-77
2023/07/03 05:33:39;;;;;;;9.15;4.30;;;;;;;21.68;53.18;99499.06;7821007;32;40762;-77
2023/07/03 05:37:56;;;;;;;9.77;4.15;;;;;;;21.66;49.87;99509.72;7820853;32;37844;-70
2023/07/03 05:42:14;;;;;;;8.32;4.18;;;;;;;22.00;48.52;99509.41;7821080;32;37201;-69
2023/07/03 05:46:30;;;;;;;8.52;3.72;;;;;;;22.21;48.70;99514.72;7819141;32;40171;-69
2023/07/03 05:50:46;;;;;;;8.23;4.10;;;;;;;22.39;48.50;99509.66;7820946;32;41085;-69
2023/07/03 05:55:04;;;;;;;12.37;4.80;;;;;;;22.61;47.50;99522.09;7820512;32;38631;-69
2023/07/03 05:59:21;;;;;;;12.37;4.32;;;;;;;22.76;46.11;99524.06;7804394;32;37280;-69
2023/07/03 06:03:37;;;;;;;8.70;4.15;;;;;;;22.92;46.01;99520.44;7793386;32;39419;-77
2023/07/03 06:07:53;;;;;;;9.77;4.28;;;;;;;23.04;46.70;99523.09;7793386;32;39732;-77
2023/07/03 06:12:10;;;;;;;12.63;4.30;;;;;;;23.11;45.24;99523.31;7793283;32;38735;-77
2023/07/03 06:16:27;;;;;;;8.90;3.80;;;;;;;23.13;44.42;99526.53;7793227;32;37081;-77
2023/07/03 06:20:47;;;;;;;8.93;4.35;;;;;;;23.46;43.77;99522.47;7793157;32;39912;-76
2023/07/03 06:25:06;;;;;;;8.68;3.83;;;;;;;23.63;43.04;99526.81;7793142;32;39688;-77
2023/07/03 06:29:22;;;;;;;12.10;4.15;;;;;;;23.76;43.33;99531.03;7808429;32;38853;-78
2023/07/03 06:33:39;;;;;;;7.95;4.22;;;;;;;24.05;44.40;99519.69;7820326;32;38141;-78
2023/07/03 06:37:58;;;;;;;10.32;4.43;;;;;;;24.16;43.88;99520.66;7820343;32;40186;-76
2023/07/03 06:42:14;;;;;;;8.48;4.00;;;;;;;23.67;46.70;99521.31;7820282;32;40082;-76
2023/07/03 06:46:31;;;;;;;8.07;3.83;;;;;;;23.98;46.90;99521.16;7815447;32;38026;-76
2023/07/03 06:50:47;;;;;;;9.20;4.55;;;;;;;24.03;46.03;99517.25;7792741;32;37701;-75
2023/07/03 06:55:04;;;;;;;8.95;4.03;;;;;;;24.16;46.81;99527.06;7792788;32;39244;-75
2023/07/03 06:59:21;;;;;;;8.38;4.22;;;;;;;24.20;47.32;99524.34;7792527;32;40868;-75
2023/07/03 07:03:39;;;;;;;5.35;3.20;;;;;;;24.44;46.18;99522.34;7813244;32;37806;-74
2023/07/03 07:07:55;;;;;;;15.38;4.37;;;;;;;24.33;46.40;99524.94;7819095;32;37129;-75
2023/07/03 07:12:12;;;;;;;10.30;4.30;;;;;;;24.08;48.49;99530.88;7819890;32;39079;-76
2023/07/03 07:16:31;;;;;;;10.20;4.25;;;;;;;23.83;48.56;99535.97;7819816;32;40788;-77
2023/07/03 07:20:48;;;;;;;8.43;3.78;;;;;;;23.60;47.64;99535.87;7815682;32;37965;-77
2023/07/03 07:25:04;;;;;;;8.07;4.32;;;;;;;24.13;45.07;99527.00;7805095;32;37146;-76
2023/07/03 07:29:21;;;;;;;6.10;3.42;;;;;;;24.61;44.30;99519.09;7810302;32;39375;-76
2023/07/03 07:33:38;;;;;;;9.95;3.83;;;;;;;24.63;42.51;99511.16;7792288;32;40777;-76
2023/07/03 07:37:54;;;;;;;8.23;4.00;;;;;;;24.81;41.37;99510.63;7792160;32;38903;-76
2023/07/03 07:42:11;;;;;;;7.50;3.78;;;;;;;25.16;41.62;99518.72;7792215;32;37182;-76
2023/07/03 07:46:30;;;;;;;8.73;3.80;;;;;;;25.06;42.05;99520.19;7792251;32;40476;-76
2023/07/03 07:50:47;;;;;;;9.68;3.95;;;;;;;25.49;41.59;99526.38;7792181;32;39935;-76
2023/07/03 07:55:04;;;;;;;7.87;3.87;;;;;;;25.62;41.75;99520.53;7791926;32;38638;-76
2023/07/03 07:59:20;;;;;;;10.15;3.95;;;;;;;25.70;42.27;99513.87;7782748;32;279291;-76
2023/07/03 08:03:39;;;;;;;8.70;3.85;;;;;;;26.09;44.28;99519.09;7803947;32;39436;-76
2023/07/03 08:07:56;;;;;;;8.20;3.90;;;;;;;25.88;40.94;99518.84;7819306;32;40000;-75
2023/07/03 08:12:12;;;;;;;9.45;3.83;;;;;;;25.85;40.64;99514.81;7819069;32;38061;-76
2023/07/03 08:16:29;;;;;;;8.25;3.90;;;;;;;25.89;39.68;99520.44;7819092;32;37217;-76
2023/07/03 08:20:46;;;;;;;9.23;4.15;;;;;;;25.94;36.32;99522.88;7810617;32;39446;-77
2023/07/03 08:25:03;;;;;;;14.07;4.40;;;;;;;26.10;36.97;99529.09;7818869;32;40061;-76
2023/07/03 08:29:19;;;;;;;9.57;4.37;;;;;;;26.55;35.20;99521.50;7818702;32;38017;-77
2023/07/03 08:33:36;;;;;;;9.18;4.43;;;;;;;26.81;33.70;99522.53;7818769;32;38046;-76
2023/07/03 08:37:53;;;;;;;11.25;4.75;;;;;;;27.23;33.02;99514.81;7818538;32;39351;-77
2023/07/03 08:42:21;;;;;;;14.07;4.53;;;;;;;27.25;30.19;99513.22;7818501;32;39713;-81
2023/07/03 08:46:38;;;;;;;12.15;5.45;;;;;;;27.14;30.75;99517.94;7818605;32;37653;-84
2023/07/03 08:50:59;;;;;;;12.02;5.32;;;;;;;27.43;30.26;99523.75;7818418;32;37078;-80
2023/07/03 08:55:20;;;;;;;10.40;4.62;;;;;;;27.43;27.64;99523.75;7816359;32;40156;-80
2023/07/03 08:59:36;;;;;;;12.02;4.72;;;;;;;27.94;26.10;99522.75;7790459;32;39866;-85
2023/07/03 09:04:05;;;;;;;12.35;5.12;;;;;;;27.87;27.77;99531.09;7814601;32;38092;-80
2023/07/03 09:08:31;;;;;;;12.63;5.30;;;;;;;27.27;27.04;99533.22;7801579;32;36832;-81
2023/07/03 09:13:05;;;;;;;12.40;5.65;;;;;;;27.07;28.09;99534.69;7789441;32;39379;-82
2023/07/03 09:17:23;;;;;;;9.23;4.72;;;;;;;27.17;28.08;99540.34;7793727;32;39741;-81
2023/07/03 09:21:40;;;;;;;9.18;4.80;;;;;;;27.35;26.22;99545.28;7816180;32;36933;-78
2023/07/03 09:26:01;;;;;;;10.63;4.72;;;;;;;27.94;28.25;99533.97;7816208;32;37985;-69
2023/07/03 09:30:20;;;;;;;10.27;5.15;;;;;;;28.34;29.56;99534.00;7817233;32;39468;-69
2023/07/03 09:35:06;;;;;;;10.27;4.32;;;;;;;28.01;27.77;99545.19;7805872;32;40139;-68
2023/07/03 09:39:24;;;;;;;13.68;5.00;;;;;;;27.88;26.91;99535.50;7802087;32;38679;-69
2023/07/03 09:43:45;;;;;;;12.15;4.95;;;;;;;28.18;26.93;99540.00;7800059;32;37098;-69
2023/07/03 09:48:11;;;;;;;10.93;5.25;;;;;;;28.46;29.71;99531.62;7802631;32;39881;-69
2023/07/03 09:52:28;;;;;;;10.80;5.05;;;;;;;28.78;27.57;99533.66;7801416;32;40516;-68
2023/07/03 09:56:44;;;;;;;9.38;4.75;;;;;;;28.78;25.96;99533.66;7800582;31;38709;-67
2023/07/03 10:01:04;;;;;;;10.98;4.93;;;;;;;28.24;26.02;99530.00;7800635;32;37809;-68
2023/07/03 10:05:30;;;;;;;9.52;4.97;;;;;;;28.67;26.04;99526.47;7803757;32;39324;-68
2023/07/03 10:09:50;;;;;;;11.52;5.10;;;;;;;28.89;28.15;99521.63;7802678;32;39892;-67
2023/07/03 10:14:14;;;;;;;9.95;4.72;;;;;;;29.13;24.49;99519.97;7807748;32;37287;-68
2023/07/03 10:18:35;;;;;;;11.40;5.15;;;;;;;29.46;25.07;99520.69;7801123;31;37083;-69
2023/07/03 10:22:53;;;;;;;11.07;5.57;;;;;;;28.75;25.75;99528.87;7796528;32;38976;-70
2023/07/03 10:27:09;;;;;;;12.25;5.07;;;;;;;29.35;25.70;99523.56;7793092;32;39930;-78
2023/07/03 10:31:33;;;;;;;10.77;5.40;;;;;;;29.22;24.98;99528.81;7792983;32;37602;-79
2023/07/03 10:35:50;;;;;;;11.12;5.78;;;;;;;29.29;26.16;99525.19;7803569;32;37893;-79
2023/07/03 10:40:19;;;;;;;13.75;5.03;;;;;;;28.96;24.94;99524.41;7802754;32;39377;-78
2023/07/03 10:44:38;;;;;;;11.52;4.40;;;;;;;28.76;24.42;99529.66;7802572;32;39607;-79
2023/07/03 10:48:56;;;;;;;10.57;4.70;;;;;;;29.07;25.26;99522.41;7801958;32;36994;-78
2023/07/03 10:53:27;;;;;;;9.68;4.55;;;;;;;28.81;25.26;99527.25;7793028;32;38203;-78
2023/07/03 10:57:57;;;;;;;12.05;4.75;;;;;;;28.89;27.26;99522.44;7800658;32;38989;-79
2023/07/03 11:02:53;;;;;;;11.82;5.43;;;;;;;29.25;24.98;99521.56;7800733;31;39764;-78
2023/07/03 11:07:18;;;;;;;10.45;4.68;;;;;;;29.00;26.17;99528.03;7800933;31;38493;-78
2023/07/03 11:11:58;;;;;;;12.32;5.80;;;;;;;28.99;25.84;99523.59;7801536;32;36448;-78
2023/07/03 11:16:16;;;;;;;10.77;4.85;;;;;;;29.35;27.86;99518.72;7802011;32;39246;-78
2023/07/03 11:20:54;;;;;;;11.45;5.65;;;;;;;29.48;26.29;99524.72;7811670;32;40004;-79
2023/07/03 11:25:32;;;;;;;12.07;5.60;;;;;;;29.03;27.18;99532.84;7818881;32;37188;-79
2023/07/03 11:29:49;;;;;;;16.80;6.32;;;;;;;29.19;27.02;99527.59;7819845;32;37106;-79
2023/07/03 11:34:08;;;;;;;12.32;5.43;;;;;;;29.00;28.87;99530.84;7805534;32;39353;-78
2023/07/03 11:38:28;;;;;;;11.30;5.15;;;;;;;28.78;27.78;99525.22;7818592;32;39160;-79
2023/07/03 11:42:47;;;;;;;12.88;6.60;;;;;;;28.17;27.61;99527.22;7819539;32;37344;-79
2023/07/03 11:47:18;;;;;;;14.90;5.90;;;;;;;28.60;26.87;99521.66;7819488;32;36741;-79
2023/07/03 11:51:37;;;;;;;14.30;5.20;;;;;;;28.53;28.53;99516.81;7818356;32;39347;-78
2023/07/03 11:55:53;;;;;;;14.82;5.68;;;;;;;28.72;28.96;99512.84;7817873;32;40034;-85
2023/07/03 12:00:19;;;;;;;15.98;6.65;;;;;;;28.93;28.23;99514.81;7805794;32;38551;-78
2023/07/03 12:04:45;;;;;;;12.10;6.10;;;;;;;28.81;28.52;99515.22;7790945;32;38006;-78
2023/07/03 12:09:26;;;;;;;11.70;5.95;;;;;;;28.75;27.65;99503.63;7802040;32;39292;-80
2023/07/03 12:13:42;;;;;;;13.38;6.35;;;;;;;28.91;28.16;99508.00;7815801;32;39975;-80
2023/07/03 12:18:06;;;;;;;14.55;6.95;;;;;;;28.44;29.77;99513.59;7811291;32;38778;-81
2023/07/03 12:22:27;;;;;;;15.25;6.07;;;;;;;28.02;29.97;99513.16;7813192;32;37418;-80
2023/07/03 12:27:03;;;;;;;13.60;6.85;;;;;;;27.64;30.16;99512.63;7808907;32;39828;-81
2023/07/03 12:31:24;;;;;;;11.98;6.40;;;;;;;28.64;30.97;99505.63;7795342;32;39996;-85
2023/07/03 12:35:44;;;;;;;16.37;7.50;;;;;;;29.36;30.76;99500.69;7812921;32;38064;-81
2023/07/03 12:40:00;;;;;;;27.85;7.93;;;;;;;29.07;29.78;99507.56;7809438;32;36163;-81
2023/07/03 12:44:17;;;;;;;16.00;7.50;;;;;;;28.42;30.02;99499.19;7789909;32;39296;-83
2023/07/03 12:48:33;;;;;;;12.48;7.00;;;;;;;28.15;30.92;99504.38;7812356;32;39693;-81
2023/07/03 12:52:58;;;;;;;15.65;7.72;;;;;;;27.85;32.09;99505.47;7818251;32;37588;-79
2023/07/03 12:57:15;;;;;;;15.15;7.03;;;;;;;28.15;31.68;99491.19;7791843;32;37131;-84
2023/07/03 13:01:32;;;;;;;14.23;6.80;;;;;;;28.11;30.87;99512.75;7807885;32;39434;-85
2023/07/03 13:05:48;;;;;;;14.52;7.20;;;;;;;28.51;32.59;99505.22;7790824;32;39760;-76
2023/07/03 13:10:14;;;;;;;16.30;8.05;;;;;;;28.93;30.94;99506.37;7793990;32;37912;-80
2023/07/03 13:14:31;;;;;;;17.08;7.57;;;;;;;28.58;30.78;99496.00;7793815;32;37096;-79
2023/07/03 13:19:00;;;;;;;14.57;7.00;;;;;;;27.95;32.80;99506.75;7793945;32;40596;-79
2023/07/03 13:23:17;;;;;;;15.35;7.72;;;;;;;28.22;31.13;99502.38;7800783;32;40788;-80
2023/07/03 13:27:34;;;;;;;13.70;7.12;;;;;;;28.35;31.99;99493.59;7821253;32;37776;-79
2023/07/03 13:31:51;;;;;;;16.70;7.55;;;;;;;28.93;31.63;99489.56;7821200;32;37818;-79
2023/07/03 13:36:20;;;;;;;14.32;7.30;;;;;;;28.60;31.47;99486.00;7817102;32;39446;-78
2023/07/03 13:40:36;;;;;;;14.10;7.55;;;;;;;29.10;30.84;99475.91;7820720;32;40060;-80
2023/07/03 13:44:52;;;;;;;16.02;7.50;;;;;;;29.04;31.44;99475.50;7818789;32;37935;-78
2023/07/03 13:49:10;;;;;;;18.55;7.68;;;;;;;30.02;31.36;99473.09;7820534;32;38178;-79
2023/07/03 13:53:27;;;;;;;16.10;7.53;;;;;;;30.56;28.97;99462.22;7815030;32;39368;-80
2023/07/03 13:57:43;;;;;;;17.62;6.75;;;;;;;29.94;30.55;99467.53;7814124;32;39984;-80
2023/07/03 14:02:00;;;;;;;20.10;7.45;;;;;;;30.66;28.69;99461.31;7809235;32;37615;-79
2023/07/03 14:06:16;;;;;;;13.52;6.62;;;;;;;30.61;29.53;99475.84;7792495;32;37216;-79
2023/07/03 14:10:33;;;;;;;14.25;6.15;;;;;;;30.60;30.22;99474.25;7793006;32;39273;-79
2023/07/03 14:14:49;;;;;;;14.18;7.28;;;;;;;29.93;30.92;99471.53;7792996;32;40035;-79
2023/07/03 14:19:06;;;;;;;24.25;7.25;;;;;;;29.54;32.48;99463.31;7792193;32;38447;-79
2023/07/03 14:23:23;;;;;;;14.68;7.47;;;;;;;29.59;32.42;99465.69;7793013;32;37900;-79
2023/07/03 14:27:40;;;;;;;17.65;6.97;;;;;;;28.76;32.90;99471.56;7792140;32;39347;-79
2023/07/03 14:31:56;;;;;;;12.05;6.75;;;;;;;28.82;33.37;99460.72;7793074;32;40719;-79
2023/07/03 14:36:13;;;;;;;15.68;7.60;;;;;;;28.48;32.79;99467.56;7792247;32;38731;-80
2023/07/03 14:40:29;;;;;;;14.57;6.70;;;;;;;28.55;34.00;99469.59;7792754;32;37168;-79
2023/07/03 14:44:46;;;;;;;15.85;7.05;;;;;;;29.03;33.96;99471.09;7792797;32;38982;-79
2023/07/03 14:49:03;;;;;;;13.15;7.03;;;;;;;29.04;33.14;99467.06;7792041;32;40855;-77
2023/07/03 14:53:20;;;;;;;14.00;7.00;;;;;;;28.83;32.30;99467.94;7812155;32;37627;-78
2023/07/03 14:57:38;;;;;;;18.45;7.90;;;;;;;28.45;32.87;99476.75;7819158;32;37191;-78
2023/07/03 15:01:56;;;;;;;13.62;7.40;;;;;;;28.00;34.09;99479.12;7818205;32;40121;-79
2023/07/03 15:06:13;;;;;;;12.90;7.12;;;;;;;28.14;34.86;99472.75;7792103;32;40045;-79
2023/07/03 15:10:32;;;;;;;11.93;7.05;;;;;;;28.64;33.88;99467.16;7817967;32;37594;-79
2023/07/03 15:14:49;;;;;;;13.57;6.32;;;;;;;28.75;34.09;99464.34;7808722;32;37247;-79
2023/07/03 15:19:13;;;;;;;13.93;6.22;;;;;;;29.10;33.58;99456.25;7791910;32;39785;-79
2023/07/03 15:23:32;;;;;;;11.57;6.30;;;;;;;28.61;34.56;99461.56;7792516;32;39828;-79
2023/07/03 15:27:48;;;;;;;13.43;6.95;;;;;;;28.74;33.98;99453.53;7790985;32;37846;-81
2023/07/03 15:32:05;;;;;;;13.50;7.00;;;;;;;28.16;34.63;99469.56;7791977;32;37088;-79
2023/07/03 15:36:22;;;;;;;13.18;6.22;;;;;;;28.22;35.25;99457.53;7812285;32;39046;-78
2023/07/03 15:40:39;;;;;;;12.18;5.87;;;;;;;28.03;35.84;99461.53;7817552;32;39964;-79
2023/07/03 15:44:57;;;;;;;13.82;6.40;;;;;;;28.19;36.24;99452.72;7819304;32;38087;-79
2023/07/03 15:49:13;;;;;;;13.73;6.03;;;;;;;28.24;35.89;99454.34;7814525;32;36197;-79
2023/07/03 15:53:30;;;;;;;10.95;5.50;;;;;;;27.73;36.55;99454.25;7792013;32;39026;-79
2023/07/03 15:57:46;;;;;;;13.70;6.55;;;;;;;27.82;36.04;99453.06;7799257;32;39901;-83
2023/07/03 16:02:03;;;;;;;13.38;6.32;;;;;;;28.17;35.73;99451.56;7799852;32;37979;-80
2023/07/03 16:06:21;;;;;;;12.15;6.05;;;;;;;28.40;36.52;99446.31;7810853;32;37202;-79
2023/07/03 16:10:39;;;;;;;12.70;6.15;;;;;;;28.36;35.90;99455.97;7818718;32;38341;-79
2023/07/03 16:14:55;;;;;;;15.80;6.20;;;;;;;28.37;35.27;99458.34;7795964;32;40072;-80
2023/07/03 16:19:13;;;;;;;11.75;5.90;;;;;;;28.63;35.70;99459.16;7791300;32;38574;-79
2023/07/03 16:23:31;;;;;;;13.20;6.40;;;;;;;28.73;35.49;99452.72;7791359;32;36821;-79
2023/07/03 16:27:49;;;;;;;12.98;6.93;;;;;;;28.67;35.79;99459.97;7791448;32;38197;-79
2023/07/03 16:32:05;;;;;;;13.13;6.55;;;;;;;28.64;35.78;99458.75;7790835;32;39797;-79
2023/07/03 16:36:27;;;;;;;12.07;5.87;;;;;;;28.45;35.86;99459.16;7791044;32;38656;-79
2023/07/03 16:40:43;;;;;;;15.17;7.23;;;;;;;27.24;37.59;99472.44;7817462;32;37988;-79
2023/07/03 16:45:00;;;;;;;12.15;6.57;;;;;;;27.54;37.73;99468.59;7818375;32;39357;-78
2023/07/03 16:49:16;;;;;;;12.60;5.70;;;;;;;27.67;37.31;99469.84;7818080;32;40162;-80
2023/07/03 16:53:34;;;;;;;10.68;5.70;;;;;;;27.59;37.87;99459.81;7800587;32;38666;-80
2023/07/03 16:57:51;;;;;;;15.60;6.68;;;;;;;27.95;37.13;99470.34;7790661;32;36139;-80
2023/07/03 17:02:08;;;;;;;17.10;7.10;;;;;;;27.77;37.86;99467.44;7793151;32;40207;-81
2023/07/03 17:06:30;;;;;;;12.90;6.37;;;;;;;27.78;37.56;99467.06;7804184;32;39902;-81
2023/07/03 17:10:47;;;;;;;13.75;6.30;;;;;;;27.52;37.77;99470.97;7815713;32;37918;-81
2023/07/03 17:15:04;;;;;;;13.25;6.22;;;;;;;27.43;38.36;99470.56;7813817;32;37074;-80
2023/07/03 17:19:21;;;;;;;14.85;6.53;;;;;;;27.27;38.22;99470.84;7794136;32;39335;-78
2023/07/03 17:23:37;;;;;;;15.52;7.03;;;;;;;27.44;38.21;99472.16;7792925;32;40111;-80
2023/07/03 17:27:54;;;;;;;15.98;7.05;;;;;;;27.09;38.28;99477.16;7800436;32;37840;-80
2023/07/03 17:32:11;;;;;;;12.55;6.68;;;;;;;27.51;38.03;99477.75;7808426;32;37112;-80
2023/07/03 17:36:31;;;;;;;12.15;6.70;;;;;;;27.24;37.92;99480.03;7797926;32;39351;-80
2023/07/03 17:40:48;;;;;;;12.40;6.18;;;;;;;27.26;37.94;99474.84;7789138;32;40852;-80
2023/07/03 17:45:05;;;;;;;13.73;6.00;;;;;;;26.80;39.04;99481.78;7798141;32;37924;-79
2023/07/03 17:49:21;;;;;;;9.48;5.57;;;;;;;26.74;38.22;99489.72;7795894;32;37192;-79
2023/07/03 17:53:39;;;;;;;12.75;6.50;;;;;;;26.91;38.79;99491.06;7802253;32;39984;-80
2023/07/03 17:57:56;;;;;;;16.02;7.00;;;;;;;26.70;38.53;99496.47;7803367;32;41266;-79
2023/07/03 18:02:12;;;;;;;12.45;6.37;;;;;;;26.64;39.02;99490.47;7800369;32;37943;-81
2023/07/03 18:06:29;;;;;;;12.85;6.70;;;;;;;26.35;40.27;99497.78;7811207;31;37117;-79
2023/07/03 18:10:45;;;;;;;14.65;6.50;;;;;;;26.50;39.89;99496.72;7819831;31;40038;-79
2023/07/03 18:15:17;;;;;;;13.00;6.20;;;;;;;26.03;40.83;99501.09;7816079;31;40847;-80
2023/07/03 18:19:51;;;;;;;13.35;6.80;;;;;;;26.54;40.16;99508.72;7819009;31;38100;-80
2023/07/03 18:24:11;;;;;;;13.80;6.40;;;;;;;26.59;40.31;99497.16;7816305;31;37545;-80
2023/07/03 18:28:27;;;;;;;13.15;6.37;;;;;;;26.42;40.92;99489.44;7820195;31;39528;-79
2023/07/03 18:32:43;;;;;;;14.25;6.53;;;;;;;26.45;40.74;99499.88;7818830;31;39605;-79
2023/07/03 18:37:00;;;;;;;17.73;6.97;;;;;;;26.47;40.58;99497.47;7804866;31;38680;-78
2023/07/03 18:41:18;;;;;;;13.82;6.62;;;;;;;26.43;41.08;99505.84;7815611;31;37918;-78
2023/07/03 18:45:34;;;;;;;14.23;6.07;;;;;;;26.67;41.02;99512.06;7807192;31;40109;-79
2023/07/03 18:49:52;;;;;;;12.02;6.20;;;;;;;26.70;41.08;99511.28;7818672;32;41543;-80
2023/07/03 18:54:10;;;;;;;15.57;6.40;;;;;;;26.66;41.80;99515.22;7811122;31;38414;-79
2023/07/03 18:58:27;;;;;;;16.17;7.30;;;;;;;26.67;41.57;99522.44;7812837;32;37209;-79
2023/07/03 19:02:44;;;;;;;14.80;6.87;;;;;;;26.67;41.14;99522.44;7807342;32;39309;-79
2023/07/03 19:07:04;;;;;;;13.68;6.85;;;;;;;26.55;42.23;99537.50;7791501;32;39992;-79
2023/07/03 19:11:21;;;;;;;17.25;6.35;;;;;;;26.47;42.14;99539.41;7791484;32;38475;-79
2023/07/03 19:15:38;;;;;;;17.15;6.72;;;;;;;26.47;41.24;99542.19;7798361;32;36801;-80
2023/07/03 19:19:55;;;;;;;13.48;6.93;;;;;;;26.43;41.94;99533.00;7811781;32;39340;-80
2023/07/03 19:24:11;;;;;;;15.75;7.87;;;;;;;26.28;41.83;99545.22;7819218;32;40165;-79
2023/07/03 19:28:28;;;;;;;13.68;6.05;;;;;;;26.40;41.57;99542.94;7812351;32;37776;-81
2023/07/03 19:32:44;;;;;;;16.70;6.20;;;;;;;26.23;42.04;99549.97;7814257;32;37442;-80
2023/07/03 19:37:01;;;;;;;14.20;6.55;;;;;;;26.15;42.71;99541.91;7818298;32;39280;-80
2023/07/03 19:41:18;;;;;;;12.63;7.05;;;;;;;26.07;43.67;99546.59;7794523;32;40483;-79
2023/07/03 19:45:35;;;;;;;17.00;6.75;;;;;;;26.02;43.66;99556.12;7790934;32;38160;-80
2023/07/03 19:49:54;;;;;;;12.95;6.55;;;;;;;26.10;43.38;99557.00;7804134;32;37639;-79
2023/07/03 19:54:12;;;;;;;13.10;6.53;;;;;;;26.05;43.40;99563.75;7815901;32;39017;-80
2023/07/03 19:58:30;;;;;;;15.50;6.87;;;;;;;26.04;42.30;99556.56;7804444;31;40868;-80
2023/07/03 20:02:49;;;;;;;14.35;6.80;;;;;;;26.00;42.53;99564.09;7799880;31;36871;-79
2023/07/03 20:07:08;;;;;;;12.55;6.50;;;;;;;25.95;43.27;99558.84;7799210;32;37238;-78
2023/07/03 20:11:25;;;;;;;17.90;6.75;;;;;;;26.04;42.75;99555.75;7793919;32;39319;-80